sensor_id;sensor_type;location;lat;lon;timestamp;pressure;altitude;pressure_sealevel;temperature;humidity
31346;BME280;21711;49.708;18.568;2024-03-08T00:00:13;97799.22;;;2.64;100.00
31346;BME280;21711;49.708;18.568;2024-03-08T00:02:45;97792.75;;;2.73;100.00
31346;BME280;21711;49.708;18.568;2024-03-08T00:05:14;97787.56;;;2.67;100.00
31346;BME280;21711;49.708;18.568;2024-03-08T00:07:42;97787.56;;;2.67;100.00
31346;BME280;21711;49.708;18.568;2024-03-08T00:10:12;97790.06;;;2.48;100.00
31346;BME280;21711;49.708;18.568;2024-03-08T00:12:46;97788.06;;;2.50;100.00
31346;BME280;21711;49.708;18.568;2024-03-08T00:15:16;97788.81;;;2.57;100.00
31346;BME280;21711;49.708;18.568;2024-03-08T00:17:46;97788.28;;;2.42;100.00
31346;BME280;21711;49.708;18.568;2024-03-08T00:20:16;97780.41;;;2.55;100.00
31346;BME280;21711;49.708;18.568;2024-03-08T00:22:46;97779.00;;;2.53;100.00
31346;BME280;21711;49.708;18.568;2024-03-08T00:25:14;97783.56;;;2.64;100.00
31346;BME280;21711;49.708;18.568;2024-03-08T00:27:42;97777.72;;;2.69;100.00
31346;BME280;21711;49.708;18.568;2024-03-08T00:30:10;97774.91;;;2.63;100.00
31346;BME280;21711;49.708;18.568;2024-03-08T00:32:40;97771.94;;;2.53;100.00
31346;BME280;21711;49.708;18.568;2024-03-08T00:35:08;97761.34;;;2.41;100.00
31346;BME280;21711;49.708;18.568;2024-03-08T00:37:36;97766.03;;;2.32;100.00
31346;BME280;21711;49.708;18.568;2024-03-08T00:40:04;97767.00;;;2.45;100.00
31346;BME280;21711;49.708;18.568;2024-03-08T00:42:34;97767.13;;;2.57;100.00
31346;BME280;21711;49.708;18.568;2024-03-08T00:45:02;97766.69;;;2.60;100.00
31346;BME280;21711;49.708;18.568;2024-03-08T00:47:30;97762.75;;;2.44;100.00
31346;BME280;21711;49.708;18.568;2024-03-08T00:49:57;97763.34;;;2.53;100.00
31346;BME280;21711;49.708;18.568;2024-03-08T00:52:25;97755.97;;;2.29;100.00
31346;BME280;21711;49.708;18.568;2024-03-08T00:54:52;97753.69;;;2.53;100.00
31346;BME280;21711;49.708;18.568;2024-03-08T00:57:20;97748.31;;;2.34;100.00
31346;BME280;21711;49.708;18.568;2024-03-08T00:59:48;97752.81;;;2.20;100.00
31346;BME280;21711;49.708;18.568;2024-03-08T01:02:15;97751.13;;;2.40;100.00
31346;BME280;21711;49.708;18.568;2024-03-08T01:04:45;97753.97;;;2.38;100.00
31346;BME280;21711;49.708;18.568;2024-03-08T01:07:14;97754.56;;;2.33;100.00
31346;BME280;21711;49.708;18.568;2024-03-08T01:09:42;97754.50;;;2.54;100.00
31346;BME280;21711;49.708;18.568;2024-03-08T01:12:09;97752.66;;;2.54;100.00
31346;BME280;21711;49.708;18.568;2024-03-08T01:14:38;97746.31;;;2.43;100.00
31346;BME280;21711;49.708;18.568;2024-03-08T01:17:05;97746.97;;;2.25;100.00
31346;BME280;21711;49.708;18.568;2024-03-08T01:19:33;97742.75;;;2.24;100.00
31346;BME280;21711;49.708;18.568;2024-03-08T01:22:00;97742.59;;;2.12;100.00
31346;BME280;21711;49.708;18.568;2024-03-08T01:24:28;97751.22;;;2.13;100.00
31346;BME280;21711;49.708;18.568;2024-03-08T01:26:56;97745.38;;;2.24;100.00
31346;BME280;21711;49.708;18.568;2024-03-08T01:29:23;97743.75;;;2.30;100.00
31346;BME280;21711;49.708;18.568;2024-03-08T01:31:51;97728.25;;;2.35;100.00
31346;BME280;21711;49.708;18.568;2024-03-08T01:34:19;97737.66;;;2.43;100.00
31346;BME280;21711;49.708;18.568;2024-03-08T01:36:48;97731.44;;;2.37;100.00
31346;BME280;21711;49.708;18.568;2024-03-08T01:39:15;97735.25;;;2.41;100.00
31346;BME280;21711;49.708;18.568;2024-03-08T01:41:44;97735.03;;;2.49;100.00
31346;BME280;21711;49.708;18.568;2024-03-08T01:44:11;97730.50;;;2.31;100.00
31346;BME280;21711;49.708;18.568;2024-03-08T01:46:45;97735.25;;;2.41;100.00
31346;BME280;21711;49.708;18.568;2024-03-08T01:49:14;97735.88;;;2.36;100.00
31346;BME280;21711;49.708;18.568;2024-03-08T01:51:41;97724.63;;;2.36;100.00
31346;BME280;21711;49.708;18.568;2024-03-08T01:54:09;97725.84;;;2.33;100.00
31346;BME280;21711;49.708;18.568;2024-03-08T01:56:39;97719.50;;;2.09;100.00
31346;BME280;21711;49.708;18.568;2024-03-08T01:59:07;97718.34;;;2.05;100.00
31346;BME280;21711;49.708;18.568;2024-03-08T02:01:35;97714.69;;;2.19;100.00
31346;BME280;21711;49.708;18.568;2024-03-08T02:04:02;97719.09;;;2.19;100.00
31346;BME280;21711;49.708;18.568;2024-03-08T02:06:29;97713.13;;;2.05;100.00
31346;BME280;21711;49.708;18.568;2024-03-08T02:08:57;97718.50;;;2.17;100.00
31346;BME280;21711;49.708;18.568;2024-03-08T02:11:24;97708.09;;;2.10;100.00
31346;BME280;21711;49.708;18.568;2024-03-08T02:13:52;97714.56;;;1.94;100.00
31346;BME280;21711;49.708;18.568;2024-03-08T02:16:22;97704.28;;;2.06;100.00
31346;BME280;21711;49.708;18.568;2024-03-08T02:18:50;97711.66;;;2.16;100.00
31346;BME280;21711;49.708;18.568;2024-03-08T02:21:18;97713.84;;;2.26;100.00
31346;BME280;21711;49.708;18.568;2024-03-08T02:23:46;97709.66;;;2.18;100.00
31346;BME280;21711;49.708;18.568;2024-03-08T02:26:14;97709.66;;;2.18;100.00
31346;BME280;21711;49.708;18.568;2024-03-08T02:28:41;97705.84;;;2.14;100.00
31346;BME280;21711;49.708;18.568;2024-03-08T02:31:11;97709.47;;;2.19;100.00
31346;BME280;21711;49.708;18.568;2024-03-08T02:33:39;97709.44;;;2.26;100.00
31346;BME280;21711;49.708;18.568;2024-03-08T02:36:07;97697.44;;;2.12;100.00
31346;BME280;21711;49.708;18.568;2024-03-08T02:38:34;97698.25;;;2.05;100.00
31346;BME280;21711;49.708;18.568;2024-03-08T02:41:01;97697.66;;;2.10;100.00
31346;BME280;21711;49.708;18.568;2024-03-08T02:43:31;97698.44;;;2.04;100.00
31346;BME280;21711;49.708;18.568;2024-03-08T02:45:58;97692.28;;;1.91;100.00
31346;BME280;21711;49.708;18.568;2024-03-08T02:48:26;97686.28;;;1.84;100.00
31346;BME280;21711;49.708;18.568;2024-03-08T02:50:54;97693.56;;;1.68;100.00
31346;BME280;21711;49.708;18.568;2024-03-08T02:53:21;97690.97;;;1.41;100.00
31346;BME280;21711;49.708;18.568;2024-03-08T02:55:49;97695.38;;;1.54;100.00
31346;BME280;21711;49.708;18.568;2024-03-08T02:58:17;97693.56;;;1.48;100.00
31346;BME280;21711;49.708;18.568;2024-03-08T03:00:45;97691.16;;;1.40;100.00
31346;BME280;21711;49.708;18.568;2024-03-08T03:03:13;97689.19;;;1.28;100.00
31346;BME280;21711;49.708;18.568;2024-03-08T03:05:40;97695.59;;;1.26;100.00
31346;BME280;21711;49.708;18.568;2024-03-08T03:08:15;97694.78;;;1.25;100.00
31346;BME280;21711;49.708;18.568;2024-03-08T03:10:45;97689.00;;;1.16;100.00
31346;BME280;21711;49.708;18.568;2024-03-08T03:13:13;97698.81;;;1.01;100.00
31346;BME280;21711;49.708;18.568;2024-03-08T03:15:41;97692.00;;;1.00;100.00
31346;BME280;21711;49.708;18.568;2024-03-08T03:18:09;97691.00;;;0.87;100.00
31346;BME280;21711;49.708;18.568;2024-03-08T03:20:37;97689.78;;;0.90;100.00
31346;BME280;21711;49.708;18.568;2024-03-08T03:23:11;97691.59;;;0.96;100.00
31346;BME280;21711;49.708;18.568;2024-03-08T03:25:43;97699.22;;;0.98;100.00
31346;BME280;21711;49.708;18.568;2024-03-08T03:28:10;97686.38;;;0.83;100.00
31346;BME280;21711;49.708;18.568;2024-03-08T03:30:42;97687.38;;;0.82;100.00
31346;BME280;21711;49.708;18.568;2024-03-08T03:33:09;97686.16;;;0.84;100.00
31346;BME280;21711;49.708;18.568;2024-03-08T03:35:40;97683.97;;;0.74;100.00
31346;BME280;21711;49.708;18.568;2024-03-08T03:38:09;97683.53;;;0.64;100.00
31346;BME280;21711;49.708;18.568;2024-03-08T03:40:39;97679.50;;;0.55;100.00
31346;BME280;21711;49.708;18.568;2024-03-08T03:43:08;97686.13;;;0.50;100.00
31346;BME280;21711;49.708;18.568;2024-03-08T03:45:38;97693.31;;;0.48;100.00
31346;BME280;21711;49.708;18.568;2024-03-08T03:48:07;97689.13;;;0.54;100.00
31346;BME280;21711;49.708;18.568;2024-03-08T03:50:38;97686.94;;;0.58;100.00
31346;BME280;21711;49.708;18.568;2024-03-08T03:53:07;97694.31;;;0.41;100.00
31346;BME280;21711;49.708;18.568;2024-03-08T03:55:37;97699.47;;;0.34;100.00
31346;BME280;21711;49.708;18.568;2024-03-08T03:58:08;97696.66;;;0.29;100.00
31346;BME280;21711;49.708;18.568;2024-03-08T04:00:38;97692.06;;;0.31;100.00
31346;BME280;21711;49.708;18.568;2024-03-08T04:03:06;97691.66;;;0.27;100.00
31346;BME280;21711;49.708;18.568;2024-03-08T04:05:34;97702.66;;;0.22;100.00
31346;BME280;21711;49.708;18.568;2024-03-08T04:08:02;97695.25;;;0.26;100.00
31346;BME280;21711;49.708;18.568;2024-03-08T04:10:30;97696.50;;;0.37;100.00
31346;BME280;21711;49.708;18.568;2024-03-08T04:12:58;97690.88;;;0.27;100.00
31346;BME280;21711;49.708;18.568;2024-03-08T04:15:26;97689.25;;;0.25;100.00
31346;BME280;21711;49.708;18.568;2024-03-08T04:17:53;97686.22;;;0.22;100.00
31346;BME280;21711;49.708;18.568;2024-03-08T04:20:21;97690.19;;;0.11;100.00
31346;BME280;21711;49.708;18.568;2024-03-08T04:22:49;97689.41;;;0.10;100.00
31346;BME280;21711;49.708;18.568;2024-03-08T04:25:17;97685.41;;;0.08;100.00
31346;BME280;21711;49.708;18.568;2024-03-08T04:27:44;97689.41;;;0.10;100.00
31346;BME280;21711;49.708;18.568;2024-03-08T04:30:12;97688.81;;;0.15;100.00
31346;BME280;21711;49.708;18.568;2024-03-08T04:32:40;97682.13;;;-0.01;100.00
31346;BME280;21711;49.708;18.568;2024-03-08T04:35:09;97692.50;;;-0.08;100.00
31346;BME280;21711;49.708;18.568;2024-03-08T04:37:36;97694.72;;;-0.05;100.00
31346;BME280;21711;49.708;18.568;2024-03-08T04:40:04;97683.75;;;0.07;100.00
31346;BME280;21711;49.708;18.568;2024-03-08T04:42:32;97688.00;;;0.08;100.00
31346;BME280;21711;49.708;18.568;2024-03-08T04:45:00;97687.34;;;-0.01;100.00
31346;BME280;21711;49.708;18.568;2024-03-08T04:47:28;97689.38;;;0.04;100.00
31346;BME280;21711;49.708;18.568;2024-03-08T04:49:55;97684.97;;;0.04;100.00
31346;BME280;21711;49.708;18.568;2024-03-08T04:52:24;97685.63;;;0.13;100.00
31346;BME280;21711;49.708;18.568;2024-03-08T04:54:52;97683.19;;;0.11;100.00
31346;BME280;21711;49.708;18.568;2024-03-08T04:57:19;97689.81;;;0.14;100.00
31346;BME280;21711;49.708;18.568;2024-03-08T04:59:47;97675.59;;;0.10;100.00
31346;BME280;21711;49.708;18.568;2024-03-08T05:02:14;97688.03;;;0.15;100.00
31346;BME280;21711;49.708;18.568;2024-03-08T05:04:42;97688.19;;;0.06;100.00
31346;BME280;21711;49.708;18.568;2024-03-08T05:07:10;97686.75;;;-0.03;100.00
31346;BME280;21711;49.708;18.568;2024-03-08T05:09:37;97683.75;;;0.00;100.00
31346;BME280;21711;49.708;18.568;2024-03-08T05:12:05;97690.59;;;0.08;100.00
31346;BME280;21711;49.708;18.568;2024-03-08T05:14:33;97690.38;;;0.09;100.00
31346;BME280;21711;49.708;18.568;2024-03-08T05:17:02;97682.94;;;-0.01;100.00
31346;BME280;21711;49.708;18.568;2024-03-08T05:19:29;97692.94;;;-0.04;100.00
31346;BME280;21711;49.708;18.568;2024-03-08T05:22:01;97699.72;;;-0.10;100.00
31346;BME280;21711;49.708;18.568;2024-03-08T05:24:30;97693.19;;;0.08;100.00
31346;BME280;21711;49.708;18.568;2024-03-08T05:26:58;97696.66;;;0.29;100.00
31346;BME280;21711;49.708;18.568;2024-03-08T05:29:28;97696.06;;;0.27;100.00
31346;BME280;21711;49.708;18.568;2024-03-08T05:31:56;97698.88;;;0.32;100.00
31346;BME280;21711;49.708;18.568;2024-03-08T05:34:25;97698.09;;;0.38;100.00
31346;BME280;21711;49.708;18.568;2024-03-08T05:36:55;97692.06;;;0.37;100.00
31346;BME280;21711;49.708;18.568;2024-03-08T05:39:23;97698.44;;;0.28;100.00
31346;BME280;21711;49.708;18.568;2024-03-08T05:41:50;97691.97;;;0.66;100.00
31346;BME280;21711;49.708;18.568;2024-03-08T05:44:18;97700.00;;;0.91;100.00
31346;BME280;21711;49.708;18.568;2024-03-08T05:46:46;97699.03;;;1.13;100.00
31346;BME280;21711;49.708;18.568;2024-03-08T05:49:14;97708.00;;;1.51;100.00
31346;BME280;21711;49.708;18.568;2024-03-08T05:51:42;97710.41;;;1.73;100.00
31346;BME280;21711;49.708;18.568;2024-03-08T05:54:11;97710.56;;;1.91;100.00
31346;BME280;21711;49.708;18.568;2024-03-08T05:56:43;97710.25;;;2.13;100.00
31346;BME280;21711;49.708;18.568;2024-03-08T05:59:12;97704.38;;;2.31;100.00
31346;BME280;21711;49.708;18.568;2024-03-08T06:01:40;97708.19;;;2.35;100.00
31346;BME280;21711;49.708;18.568;2024-03-08T06:04:10;97714.81;;;2.38;100.00
31346;BME280;21711;49.708;18.568;2024-03-08T06:06:40;97713.56;;;2.47;100.00
31346;BME280;21711;49.708;18.568;2024-03-08T06:09:08;97709.75;;;2.43;100.00
31346;BME280;21711;49.708;18.568;2024-03-08T06:11:39;97715.97;;;2.42;100.00
31346;BME280;21711;49.708;18.568;2024-03-08T06:14:08;97717.56;;;2.82;100.00
31346;BME280;21711;49.708;18.568;2024-03-08T06:16:36;97719.91;;;2.91;100.00
31346;BME280;21711;49.708;18.568;2024-03-08T06:19:03;97717.03;;;3.31;100.00
31346;BME280;21711;49.708;18.568;2024-03-08T06:21:31;97722.34;;;3.68;100.00
31346;BME280;21711;49.708;18.568;2024-03-08T06:23:59;97729.47;;;3.99;100.00
31346;BME280;21711;49.708;18.568;2024-03-08T06:26:27;97733.00;;;4.72;100.00
31346;BME280;21711;49.708;18.568;2024-03-08T06:28:59;97733.81;;;5.16;100.00
31346;BME280;21711;49.708;18.568;2024-03-08T06:31:26;97733.03;;;5.27;99.36
31346;BME280;21711;49.708;18.568;2024-03-08T06:33:53;97744.47;;;5.57;94.80
31346;BME280;21711;49.708;18.568;2024-03-08T06:36:25;97738.88;;;5.41;93.66
31346;BME280;21711;49.708;18.568;2024-03-08T06:38:52;97737.84;;;5.78;91.46
31346;BME280;21711;49.708;18.568;2024-03-08T06:41:21;97741.84;;;5.69;94.56
31346;BME280;21711;49.708;18.568;2024-03-08T06:43:48;97746.97;;;5.87;90.14
31346;BME280;21711;49.708;18.568;2024-03-08T06:46:19;97744.44;;;5.92;87.24
31346;BME280;21711;49.708;18.568;2024-03-08T06:48:48;97745.50;;;6.44;83.94
31346;BME280;21711;49.708;18.568;2024-03-08T06:51:17;97740.88;;;6.35;86.20
31346;BME280;21711;49.708;18.568;2024-03-08T06:53:45;97744.91;;;6.83;82.86
31346;BME280;21711;49.708;18.568;2024-03-08T06:56:13;97736.78;;;7.71;79.08
31346;BME280;21711;49.708;18.568;2024-03-08T06:58:40;97737.69;;;7.59;77.05
31346;BME280;21711;49.708;18.568;2024-03-08T07:01:08;97741.59;;;7.74;77.11
31346;BME280;21711;49.708;18.568;2024-03-08T07:03:42;97745.22;;;7.90;75.78
31346;BME280;21711;49.708;18.568;2024-03-08T07:06:12;97737.75;;;6.96;79.26
31346;BME280;21711;49.708;18.568;2024-03-08T07:08:42;97729.69;;;6.27;83.91
31346;BME280;21711;49.708;18.568;2024-03-08T07:11:10;97737.31;;;6.41;84.21
31346;BME280;21711;49.708;18.568;2024-03-08T07:13:37;97736.31;;;6.59;81.75
31346;BME280;21711;49.708;18.568;2024-03-08T07:16:05;97733.47;;;7.07;79.63
31346;BME280;21711;49.708;18.568;2024-03-08T07:18:36;97739.38;;;7.48;77.91
31346;BME280;21711;49.708;18.568;2024-03-08T07:21:07;97745.44;;;8.28;74.40
31346;BME280;21711;49.708;18.568;2024-03-08T07:23:34;97744.38;;;8.74;71.30
31346;BME280;21711;49.708;18.568;2024-03-08T07:26:20;97739.00;;;8.91;68.49
31346;BME280;21711;49.708;18.568;2024-03-08T07:28:48;97744.13;;;8.75;71.57
31346;BME280;21711;49.708;18.568;2024-03-08T07:31:15;97746.44;;;8.72;70.64
31346;BME280;21711;49.708;18.568;2024-03-08T07:33:58;97743.44;;;8.85;70.48
31346;BME280;21711;49.708;18.568;2024-03-08T07:36:25;97749.72;;;9.39;67.93
31346;BME280;21711;49.708;18.568;2024-03-08T07:38:53;97746.13;;;10.63;64.18
31346;BME280;21711;49.708;18.568;2024-03-08T07:41:20;97745.56;;;11.96;58.50
31346;BME280;21711;49.708;18.568;2024-03-08T07:43:49;97749.59;;;12.59;53.69
31346;BME280;21711;49.708;18.568;2024-03-08T07:46:16;97751.59;;;13.83;50.99
31346;BME280;21711;49.708;18.568;2024-03-08T07:48:46;97734.44;;;11.94;54.06
31346;BME280;21711;49.708;18.568;2024-03-08T07:51:16;97727.31;;;11.84;55.65
31346;BME280;21711;49.708;18.568;2024-03-08T07:53:45;97740.53;;;12.66;53.27
31346;BME280;21711;49.708;18.568;2024-03-08T07:56:12;97735.09;;;13.56;52.28
31346;BME280;21711;49.708;18.568;2024-03-08T07:58:40;97735.53;;;14.17;51.27
31346;BME280;21711;49.708;18.568;2024-03-08T08:01:08;97738.03;;;14.09;50.10
31346;BME280;21711;49.708;18.568;2024-03-08T08:03:43;97728.88;;;13.96;49.01
31346;BME280;21711;49.708;18.568;2024-03-08T08:06:11;97730.16;;;13.74;48.71
31346;BME280;21711;49.708;18.568;2024-03-08T08:08:43;97724.72;;;12.45;52.21
31346;BME280;21711;49.708;18.568;2024-03-08T08:11:11;97724.38;;;12.62;52.93
31346;BME280;21711;49.708;18.568;2024-03-08T08:13:45;97718.31;;;12.51;54.36
31346;BME280;21711;49.708;18.568;2024-03-08T08:16:12;97725.00;;;13.83;51.69
31346;BME280;21711;49.708;18.568;2024-03-08T08:18:40;97735.25;;;14.82;48.11
31346;BME280;21711;49.708;18.568;2024-03-08T08:21:08;97728.59;;;15.18;47.30
31346;BME280;21711;49.708;18.568;2024-03-08T08:23:35;97733.03;;;15.22;47.87
31346;BME280;21711;49.708;18.568;2024-03-08T08:26:02;97722.13;;;13.79;49.86
31346;BME280;21711;49.708;18.568;2024-03-08T08:28:30;97726.13;;;13.17;50.16
31346;BME280;21711;49.708;18.568;2024-03-08T08:30:58;97718.25;;;12.06;56.42
31346;BME280;21711;49.708;18.568;2024-03-08T08:33:26;97713.88;;;11.54;58.75
31346;BME280;21711;49.708;18.568;2024-03-08T08:35:53;97716.81;;;12.40;55.44
31346;BME280;21711;49.708;18.568;2024-03-08T08:38:21;97713.50;;;11.97;55.93
31346;BME280;21711;49.708;18.568;2024-03-08T08:40:48;97714.38;;;11.62;56.44
31346;BME280;21711;49.708;18.568;2024-03-08T08:43:17;97711.25;;;11.23;58.85
31346;BME280;21711;49.708;18.568;2024-03-08T08:45:44;97705.16;;;10.76;57.33
31346;BME280;21711;49.708;18.568;2024-03-08T08:48:14;97712.69;;;10.31;59.85
31346;BME280;21711;49.708;18.568;2024-03-08T08:50:41;97706.16;;;9.90;63.39
31346;BME280;21711;49.708;18.568;2024-03-08T08:53:08;97710.00;;;10.20;61.91
31346;BME280;21711;49.708;18.568;2024-03-08T08:55:36;97711.81;;;10.09;60.17
31346;BME280;21711;49.708;18.568;2024-03-08T08:58:03;97711.13;;;9.76;61.71
31346;BME280;21711;49.708;18.568;2024-03-08T09:00:31;97709.97;;;9.56;61.10
31346;BME280;21711;49.708;18.568;2024-03-08T09:03:00;97703.41;;;9.64;62.12
31346;BME280;21711;49.708;18.568;2024-03-08T09:05:29;97710.56;;;9.74;61.10
31346;BME280;21711;49.708;18.568;2024-03-08T09:08:00;97707.84;;;10.07;65.38
31346;BME280;21711;49.708;18.568;2024-03-08T09:10:28;97716.63;;;10.23;63.63
31346;BME280;21711;49.708;18.568;2024-03-08T09:12:57;97712.53;;;10.69;60.94
31346;BME280;21711;49.708;18.568;2024-03-08T09:15:27;97710.97;;;10.83;57.86
31346;BME280;21711;49.708;18.568;2024-03-08T09:17:56;97713.06;;;10.55;59.89
31346;BME280;21711;49.708;18.568;2024-03-08T09:20:23;97717.31;;;10.92;58.48
31346;BME280;21711;49.708;18.568;2024-03-08T09:22:52;97712.31;;;11.27;58.96
31346;BME280;21711;49.708;18.568;2024-03-08T09:25:20;97716.03;;;12.34;56.86
31346;BME280;21711;49.708;18.568;2024-03-08T09:27:47;97716.06;;;12.74;55.48
31346;BME280;21711;49.708;18.568;2024-03-08T09:30:15;97708.31;;;12.43;55.08
31346;BME280;21711;49.708;18.568;2024-03-08T09:32:42;97710.63;;;12.55;52.60
31346;BME280;21711;49.708;18.568;2024-03-08T09:35:11;97710.59;;;11.89;57.28
31346;BME280;21711;49.708;18.568;2024-03-08T09:37:38;97709.81;;;11.93;55.29
31346;BME280;21711;49.708;18.568;2024-03-08T09:40:06;97703.56;;;11.32;58.28
31346;BME280;21711;49.708;18.568;2024-03-08T09:42:37;97707.00;;;11.38;60.75
31346;BME280;21711;49.708;18.568;2024-03-08T09:45:11;97699.59;;;11.19;59.81
31346;BME280;21711;49.708;18.568;2024-03-08T09:47:44;97711.25;;;11.13;59.30
31346;BME280;21711;49.708;18.568;2024-03-08T09:50:12;97698.78;;;10.77;61.91
31346;BME280;21711;49.708;18.568;2024-03-08T09:52:44;97704.31;;;10.65;63.11
31346;BME280;21711;49.708;18.568;2024-03-08T09:55:14;97697.97;;;10.71;64.06
31346;BME280;21711;49.708;18.568;2024-03-08T09:57:45;97708.13;;;12.23;58.05
31346;BME280;21711;49.708;18.568;2024-03-08T10:00:32;97701.50;;;13.41;53.10
31346;BME280;21711;49.708;18.568;2024-03-08T10:03:02;97710.34;;;14.53;49.36
31346;BME280;21711;49.708;18.568;2024-03-08T10:05:31;97716.75;;;15.57;45.73
31346;BME280;21711;49.708;18.568;2024-03-08T10:08:00;97710.63;;;14.08;48.77
31346;BME280;21711;49.708;18.568;2024-03-08T10:10:28;97709.34;;;12.87;50.36
31346;BME280;21711;49.708;18.568;2024-03-08T10:12:55;97706.81;;;12.21;53.84
31346;BME280;21711;49.708;18.568;2024-03-08T10:15:23;97703.47;;;11.74;56.44
31346;BME280;21711;49.708;18.568;2024-03-08T10:17:51;97705.81;;;11.96;57.87
31346;BME280;21711;49.708;18.568;2024-03-08T10:20:20;97706.00;;;12.71;54.86
31346;BME280;21711;49.708;18.568;2024-03-08T10:22:48;97710.94;;;13.23;52.39
31346;BME280;21711;49.708;18.568;2024-03-08T10:25:33;97706.94;;;15.38;47.35
31346;BME280;21711;49.708;18.568;2024-03-08T10:28:05;97723.25;;;18.89;40.17
31346;BME280;21711;49.708;18.568;2024-03-08T10:30:33;97724.66;;;20.81;35.07
31346;BME280;21711;49.708;18.568;2024-03-08T10:33:00;97721.47;;;20.67;34.34
31346;BME280;21711;49.708;18.568;2024-03-08T10:35:29;97723.94;;;20.72;35.20
31346;BME280;21711;49.708;18.568;2024-03-08T10:37:57;97739.28;;;22.72;32.13
31346;BME280;21711;49.708;18.568;2024-03-08T10:40:28;97725.06;;;22.34;31.32
31346;BME280;21711;49.708;18.568;2024-03-08T10:42:59;97714.69;;;19.40;35.25
31346;BME280;21711;49.708;18.568;2024-03-08T10:45:39;97708.88;;;16.96;39.52
31346;BME280;21711;49.708;18.568;2024-03-08T10:48:32;97694.09;;;15.27;41.49
31346;BME280;21711;49.708;18.568;2024-03-08T10:51:06;97693.50;;;16.56;42.62
31346;BME280;21711;49.708;18.568;2024-03-08T10:53:38;97692.59;;;16.83;40.17
31346;BME280;21711;49.708;18.568;2024-03-08T10:56:09;97699.28;;;17.18;41.16
31346;BME280;21711;49.708;18.568;2024-03-08T10:58:37;97688.31;;;18.00;38.90
31346;BME280;21711;49.708;18.568;2024-03-08T11:01:05;97697.63;;;19.53;36.07
31346;BME280;21711;49.708;18.568;2024-03-08T11:03:54;97693.34;;;20.43;34.51
31346;BME280;21711;49.708;18.568;2024-03-08T11:06:45;97695.34;;;18.99;34.93
31346;BME280;21711;49.708;18.568;2024-03-08T11:09:39;97687.63;;;18.97;35.94
31346;BME280;21711;49.708;18.568;2024-03-08T11:12:27;97685.34;;;19.82;35.88
31346;BME280;21711;49.708;18.568;2024-03-08T11:15:01;97690.81;;;21.35;32.76
31346;BME280;21711;49.708;18.568;2024-03-08T11:19:59;97691.03;;;22.55;31.18
31346;BME280;21711;49.708;18.568;2024-03-08T11:22:29;97685.25;;;22.15;30.66
31346;BME280;21711;49.708;18.568;2024-03-08T11:25:09;97684.59;;;22.59;30.43
31346;BME280;21711;49.708;18.568;2024-03-08T11:27:37;97685.56;;;23.73;29.30
31346;BME280;21711;49.708;18.568;2024-03-08T11:30:06;97680.22;;;20.84;32.67
31346;BME280;21711;49.708;18.568;2024-03-08T11:32:47;97668.13;;;18.61;35.50
31346;BME280;21711;49.708;18.568;2024-03-08T11:35:22;97666.81;;;19.99;34.84
31346;BME280;21711;49.708;18.568;2024-03-08T11:37:50;97667.13;;;19.88;34.52
31346;BME280;21711;49.708;18.568;2024-03-08T11:40:18;97671.44;;;21.42;33.19
31346;BME280;21711;49.708;18.568;2024-03-08T11:42:48;97659.69;;;20.45;34.16
31346;BME280;21711;49.708;18.568;2024-03-08T11:45:16;97658.72;;;20.84;33.17
31346;BME280;21711;49.708;18.568;2024-03-08T11:47:45;97659.91;;;21.41;31.95
31346;BME280;21711;49.708;18.568;2024-03-08T11:50:15;97666.63;;;22.64;31.29
31346;BME280;21711;49.708;18.568;2024-03-08T11:52:43;97633.72;;;20.37;34.01
31346;BME280;21711;49.708;18.568;2024-03-08T11:55:11;97654.59;;;21.20;32.87
31346;BME280;21711;49.708;18.568;2024-03-08T11:57:40;97639.91;;;21.18;31.82
31346;BME280;21711;49.708;18.568;2024-03-08T12:00:18;97625.16;;;19.23;33.97
31346;BME280;21711;49.708;18.568;2024-03-08T12:03:07;97632.34;;;18.66;35.32
31346;BME280;21711;49.708;18.568;2024-03-08T12:05:35;97630.72;;;19.48;35.85
31346;BME280;21711;49.708;18.568;2024-03-08T12:08:03;97629.28;;;19.60;35.30
31346;BME280;21711;49.708;18.568;2024-03-08T12:10:32;97619.03;;;19.53;35.53
31346;BME280;21711;49.708;18.568;2024-03-08T12:13:00;97621.59;;;19.49;34.95
31346;BME280;21711;49.708;18.568;2024-03-08T12:15:29;97630.31;;;20.28;34.06
31346;BME280;21711;49.708;18.568;2024-03-08T12:17:56;97625.22;;;19.44;35.29
31346;BME280;21711;49.708;18.568;2024-03-08T12:20:27;97628.50;;;19.80;36.17
31346;BME280;21711;49.708;18.568;2024-03-08T12:22:58;97617.56;;;19.94;34.34
31346;BME280;21711;49.708;18.568;2024-03-08T12:25:35;97617.06;;;20.22;34.88
31346;BME280;21711;49.708;18.568;2024-03-08T12:28:13;97625.78;;;20.19;33.83
31346;BME280;21711;49.708;18.568;2024-03-08T12:30:50;97628.75;;;19.96;34.85
31346;BME280;21711;49.708;18.568;2024-03-08T12:33:23;97623.31;;;19.06;34.47
31346;BME280;21711;49.708;18.568;2024-03-08T12:35:52;97616.59;;;18.11;36.82
31346;BME280;21711;49.708;18.568;2024-03-08T12:38:28;97611.94;;;17.27;38.87
31346;BME280;21711;49.708;18.568;2024-03-08T12:40:59;97611.06;;;16.86;41.17
31346;BME280;21711;49.708;18.568;2024-03-08T12:43:28;97602.75;;;17.51;40.15
31346;BME280;21711;49.708;18.568;2024-03-08T12:45:59;97604.16;;;17.08;40.30
31346;BME280;21711;49.708;18.568;2024-03-08T12:48:26;97599.44;;;17.05;40.58
31346;BME280;21711;49.708;18.568;2024-03-08T12:50:53;97596.47;;;17.47;40.58
31346;BME280;21711;49.708;18.568;2024-03-08T12:53:22;97602.47;;;17.12;40.68
31346;BME280;21711;49.708;18.568;2024-03-08T12:55:50;97593.88;;;16.69;42.09
31346;BME280;21711;49.708;18.568;2024-03-08T12:58:18;97589.00;;;15.75;42.93
31346;BME280;21711;49.708;18.568;2024-03-08T13:00:47;97591.34;;;14.20;46.33
31346;BME280;21711;49.708;18.568;2024-03-08T13:03:20;97586.97;;;14.11;48.62